sensor_id;sensor_type;location;lat;lon;timestamp;temperature;humidity
28530;DHT22;15737;49.760;6.632;2024-01-30T00:01:10;4.00;99.90
28530;DHT22;15737;49.760;6.632;2024-01-30T00:03:36;4.00;99.90
28530;DHT22;15737;49.760;6.632;2024-01-30T00:06:03;3.90;99.90
28530;DHT22;15737;49.760;6.632;2024-01-30T00:08:29;3.80;99.90
28530;DHT22;15737;49.760;6.632;2024-01-30T00:10:54;3.80;99.90
28530;DHT22;15737;49.760;6.632;2024-01-30T00:13:20;3.80;99.90
28530;DHT22;15737;49.760;6.632;2024-01-30T00:15:46;3.90;99.90
28530;DHT22;15737;49.760;6.632;2024-01-30T00:18:11;4.10;99.90
28530;DHT22;15737;49.760;6.632;2024-01-30T00:20:37;4.10;99.90
28530;DHT22;15737;49.760;6.632;2024-01-30T00:23:02;4.20;99.90
28530;DHT22;15737;49.760;6.632;2024-01-30T00:25:28;4.20;99.90
28530;DHT22;15737;49.760;6.632;2024-01-30T00:27:53;4.20;99.90
28530;DHT22;15737;49.760;6.632;2024-01-30T00:30:20;4.10;99.90
28530;DHT22;15737;49.760;6.632;2024-01-30T00:32:46;4.10;99.90
28530;DHT22;15737;49.760;6.632;2024-01-30T00:35:11;4.00;99.90
28530;DHT22;15737;49.760;6.632;2024-01-30T00:37:37;3.80;99.90
28530;DHT22;15737;49.760;6.632;2024-01-30T00:40:02;3.80;99.90
28530;DHT22;15737;49.760;6.632;2024-01-30T00:42:29;3.70;99.90
28530;DHT22;15737;49.760;6.632;2024-01-30T00:44:54;3.80;99.90
28530;DHT22;15737;49.760;6.632;2024-01-30T00:47:20;3.90;99.90
28530;DHT22;15737;49.760;6.632;2024-01-30T00:49:45;4.20;99.90
28530;DHT22;15737;49.760;6.632;2024-01-30T00:52:11;4.30;99.90
28530;DHT22;15737;49.760;6.632;2024-01-30T00:54:37;4.20;99.90
28530;DHT22;15737;49.760;6.632;2024-01-30T00:57:02;4.10;99.90
28530;DHT22;15737;49.760;6.632;2024-01-30T00:59:28;4.10;99.90
28530;DHT22;15737;49.760;6.632;2024-01-30T01:01:53;4.00;99.90
28530;DHT22;15737;49.760;6.632;2024-01-30T01:04:19;4.00;99.90
28530;DHT22;15737;49.760;6.632;2024-01-30T01:06:46;3.90;99.90
28530;DHT22;15737;49.760;6.632;2024-01-30T01:09:12;3.70;99.90
28530;DHT22;15737;49.760;6.632;2024-01-30T01:11:38;3.50;99.90
28530;DHT22;15737;49.760;6.632;2024-01-30T01:14:05;3.40;99.90
28530;DHT22;15737;49.760;6.632;2024-01-30T01:16:31;3.30;99.90
28530;DHT22;15737;49.760;6.632;2024-01-30T01:18:56;3.20;99.90
28530;DHT22;15737;49.760;6.632;2024-01-30T01:21:22;3.20;99.90
28530;DHT22;15737;49.760;6.632;2024-01-30T01:23:48;3.20;99.90
28530;DHT22;15737;49.760;6.632;2024-01-30T01:26:13;3.20;99.90
28530;DHT22;15737;49.760;6.632;2024-01-30T01:28:40;3.20;99.90
28530;DHT22;15737;49.760;6.632;2024-01-30T01:31:06;3.10;99.90
28530;DHT22;15737;49.760;6.632;2024-01-30T01:33:32;3.10;99.90
28530;DHT22;15737;49.760;6.632;2024-01-30T01:35:59;3.00;99.90
28530;DHT22;15737;49.760;6.632;2024-01-30T01:38:24;3.00;99.90
28530;DHT22;15737;49.760;6.632;2024-01-30T01:40:50;3.00;99.90
28530;DHT22;15737;49.760;6.632;2024-01-30T01:43:16;3.00;99.90
28530;DHT22;15737;49.760;6.632;2024-01-30T01:45:42;3.00;99.90
28530;DHT22;15737;49.760;6.632;2024-01-30T01:48:08;3.00;99.90
28530;DHT22;15737;49.760;6.632;2024-01-30T01:50:35;3.10;99.90
28530;DHT22;15737;49.760;6.632;2024-01-30T01:53:01;3.10;99.90
28530;DHT22;15737;49.760;6.632;2024-01-30T01:55:29;3.20;99.90
28530;DHT22;15737;49.760;6.632;2024-01-30T01:57:55;3.20;99.90
28530;DHT22;15737;49.760;6.632;2024-01-30T02:00:21;3.20;99.90
28530;DHT22;15737;49.760;6.632;2024-01-30T02:02:46;3.30;99.90
28530;DHT22;15737;49.760;6.632;2024-01-30T02:05:12;3.20;99.90
28530;DHT22;15737;49.760;6.632;2024-01-30T02:07:38;3.20;99.90
28530;DHT22;15737;49.760;6.632;2024-01-30T02:10:04;3.20;99.90
28530;DHT22;15737;49.760;6.632;2024-01-30T02:12:30;3.20;99.90
28530;DHT22;15737;49.760;6.632;2024-01-30T02:14:55;3.30;99.90
28530;DHT22;15737;49.760;6.632;2024-01-30T02:17:21;3.30;99.90
28530;DHT22;15737;49.760;6.632;2024-01-30T02:19:48;3.40;99.90
28530;DHT22;15737;49.760;6.632;2024-01-30T02:22:14;3.40;99.90
28530;DHT22;15737;49.760;6.632;2024-01-30T02:24:40;3.40;99.90
28530;DHT22;15737;49.760;6.632;2024-01-30T02:27:05;3.40;99.90
28530;DHT22;15737;49.760;6.632;2024-01-30T02:29:31;3.40;99.90
28530;DHT22;15737;49.760;6.632;2024-01-30T02:31:56;3.40;99.90
28530;DHT22;15737;49.760;6.632;2024-01-30T02:34:23;3.40;99.90
28530;DHT22;15737;49.760;6.632;2024-01-30T02:36:48;3.30;99.90
28530;DHT22;15737;49.760;6.632;2024-01-30T02:39:14;3.30;99.90
28530;DHT22;15737;49.760;6.632;2024-01-30T02:41:40;3.40;99.90
28530;DHT22;15737;49.760;6.632;2024-01-30T02:44:05;3.60;99.90
28530;DHT22;15737;49.760;6.632;2024-01-30T02:46:31;3.80;99.90
28530;DHT22;15737;49.760;6.632;2024-01-30T02:48:56;3.90;99.90
28530;DHT22;15737;49.760;6.632;2024-01-30T02:51:22;3.90;99.90
28530;DHT22;15737;49.760;6.632;2024-01-30T02:53:48;4.00;99.90
28530;DHT22;15737;49.760;6.632;2024-01-30T02:56:16;3.90;99.90
28530;DHT22;15737;49.760;6.632;2024-01-30T02:58:41;3.90;99.90
28530;DHT22;15737;49.760;6.632;2024-01-30T03:01:07;3.90;99.90
28530;DHT22;15737;49.760;6.632;2024-01-30T03:03:33;3.90;99.90
28530;DHT22;15737;49.760;6.632;2024-01-30T03:06:00;4.00;99.90
28530;DHT22;15737;49.760;6.632;2024-01-30T03:08:26;4.00;99.90
28530;DHT22;15737;49.760;6.632;2024-01-30T03:10:51;4.00;99.90
28530;DHT22;15737;49.760;6.632;2024-01-30T03:13:17;4.00;99.90
28530;DHT22;15737;49.760;6.632;2024-01-30T03:15:42;3.90;99.90
28530;DHT22;15737;49.760;6.632;2024-01-30T03:18:08;3.90;99.90
28530;DHT22;15737;49.760;6.632;2024-01-30T03:20:34;4.00;99.90
28530;DHT22;15737;49.760;6.632;2024-01-30T03:23:00;4.00;99.90
28530;DHT22;15737;49.760;6.632;2024-01-30T03:25:26;4.00;99.90
28530;DHT22;15737;49.760;6.632;2024-01-30T03:27:51;3.90;99.90
28530;DHT22;15737;49.760;6.632;2024-01-30T03:30:17;4.00;99.90
28530;DHT22;15737;49.760;6.632;2024-01-30T03:32:43;3.90;99.90
28530;DHT22;15737;49.760;6.632;2024-01-30T03:35:09;3.80;99.90
28530;DHT22;15737;49.760;6.632;2024-01-30T03:37:35;3.80;99.90
28530;DHT22;15737;49.760;6.632;2024-01-30T03:40:01;3.80;99.90
28530;DHT22;15737;49.760;6.632;2024-01-30T03:42:27;3.90;99.90
28530;DHT22;15737;49.760;6.632;2024-01-30T03:44:53;3.90;99.90
28530;DHT22;15737;49.760;6.632;2024-01-30T03:47:19;4.00;99.90
28530;DHT22;15737;49.760;6.632;2024-01-30T03:49:45;4.00;99.90
28530;DHT22;15737;49.760;6.632;2024-01-30T03:52:11;4.00;99.90
28530;DHT22;15737;49.760;6.632;2024-01-30T03:54:36;3.90;99.90
28530;DHT22;15737;49.760;6.632;2024-01-30T03:57:02;4.00;99.90
28530;DHT22;15737;49.760;6.632;2024-01-30T03:59:27;3.80;99.90
28530;DHT22;15737;49.760;6.632;2024-01-30T04:01:53;3.50;99.90
28530;DHT22;15737;49.760;6.632;2024-01-30T04:04:18;3.30;99.90
28530;DHT22;15737;49.760;6.632;2024-01-30T04:06:44;3.30;99.90
28530;DHT22;15737;49.760;6.632;2024-01-30T04:09:11;3.40;99.90
28530;DHT22;15737;49.760;6.632;2024-01-30T04:11:36;3.70;99.90
28530;DHT22;15737;49.760;6.632;2024-01-30T04:14:02;3.80;99.90
28530;DHT22;15737;49.760;6.632;2024-01-30T04:16:27;3.90;99.90
28530;DHT22;15737;49.760;6.632;2024-01-30T04:18:53;3.90;99.90
28530;DHT22;15737;49.760;6.632;2024-01-30T04:21:20;3.70;99.90
28530;DHT22;15737;49.760;6.632;2024-01-30T04:23:46;3.60;99.90
28530;DHT22;15737;49.760;6.632;2024-01-30T04:26:12;3.70;99.90
28530;DHT22;15737;49.760;6.632;2024-01-30T04:28:37;3.80;99.90
28530;DHT22;15737;49.760;6.632;2024-01-30T04:31:03;4.00;99.90
28530;DHT22;15737;49.760;6.632;2024-01-30T04:33:28;4.10;99.90
28530;DHT22;15737;49.760;6.632;2024-01-30T04:35:54;4.10;99.90
28530;DHT22;15737;49.760;6.632;2024-01-30T04:38:19;4.00;99.90
28530;DHT22;15737;49.760;6.632;2024-01-30T04:40:45;4.00;99.90
28530;DHT22;15737;49.760;6.632;2024-01-30T04:43:10;4.00;99.90
28530;DHT22;15737;49.760;6.632;2024-01-30T04:45:36;4.00;99.90
28530;DHT22;15737;49.760;6.632;2024-01-30T04:48:01;3.90;99.90
28530;DHT22;15737;49.760;6.632;2024-01-30T04:50:27;3.70;99.90
28530;DHT22;15737;49.760;6.632;2024-01-30T04:52:53;3.70;99.90
28530;DHT22;15737;49.760;6.632;2024-01-30T04:55:18;3.70;99.90
28530;DHT22;15737;49.760;6.632;2024-01-30T04:57:44;3.60;99.90
28530;DHT22;15737;49.760;6.632;2024-01-30T05:00:10;3.60;99.90
28530;DHT22;15737;49.760;6.632;2024-01-30T05:02:35;3.70;99.90
28530;DHT22;15737;49.760;6.632;2024-01-30T05:05:01;3.80;99.90
28530;DHT22;15737;49.760;6.632;2024-01-30T05:07:26;3.70;99.90
28530;DHT22;15737;49.760;6.632;2024-01-30T05:09:52;3.80;99.90
28530;DHT22;15737;49.760;6.632;2024-01-30T05:12:18;3.80;99.90
28530;DHT22;15737;49.760;6.632;2024-01-30T05:14:43;3.90;99.90
28530;DHT22;15737;49.760;6.632;2024-01-30T05:17:09;4.00;99.90
28530;DHT22;15737;49.760;6.632;2024-01-30T05:19:35;4.10;99.90
28530;DHT22;15737;49.760;6.632;2024-01-30T05:22:01;4.20;99.90
28530;DHT22;15737;49.760;6.632;2024-01-30T05:24:26;4.30;99.90
28530;DHT22;15737;49.760;6.632;2024-01-30T05:26:52;4.30;99.90
28530;DHT22;15737;49.760;6.632;2024-01-30T05:29:17;4.30;99.90
28530;DHT22;15737;49.760;6.632;2024-01-30T05:31:43;4.10;99.90
28530;DHT22;15737;49.760;6.632;2024-01-30T05:34:08;3.80;99.90
28530;DHT22;15737;49.760;6.632;2024-01-30T05:39:05;3.60;99.90
28530;DHT22;15737;49.760;6.632;2024-01-30T05:41:30;3.60;99.90
28530;DHT22;15737;49.760;6.632;2024-01-30T05:43:55;3.50;99.90
28530;DHT22;15737;49.760;6.632;2024-01-30T05:46:21;3.60;99.90
28530;DHT22;15737;49.760;6.632;2024-01-30T05:48:47;3.60;99.90
28530;DHT22;15737;49.760;6.632;2024-01-30T05:51:13;3.70;99.90
28530;DHT22;15737;49.760;6.632;2024-01-30T05:53:38;3.90;99.90
28530;DHT22;15737;49.760;6.632;2024-01-30T05:56:04;4.00;99.90
28530;DHT22;15737;49.760;6.632;2024-01-30T05:58:30;3.90;99.90
28530;DHT22;15737;49.760;6.632;2024-01-30T06:00:58;3.60;99.90
28530;DHT22;15737;49.760;6.632;2024-01-30T06:03:24;3.50;99.90
28530;DHT22;15737;49.760;6.632;2024-01-30T06:05:50;3.50;99.90
28530;DHT22;15737;49.760;6.632;2024-01-30T06:08:15;3.60;99.90
28530;DHT22;15737;49.760;6.632;2024-01-30T06:10:41;3.80;99.90
28530;DHT22;15737;49.760;6.632;2024-01-30T06:13:09;3.90;99.90
28530;DHT22;15737;49.760;6.632;2024-01-30T06:15:34;3.90;99.90
28530;DHT22;15737;49.760;6.632;2024-01-30T06:18:00;3.80;99.90
28530;DHT22;15737;49.760;6.632;2024-01-30T06:20:25;3.60;99.90
28530;DHT22;15737;49.760;6.632;2024-01-30T06:22:51;3.50;99.90
28530;DHT22;15737;49.760;6.632;2024-01-30T06:25:16;3.40;99.90
28530;DHT22;15737;49.760;6.632;2024-01-30T06:27:42;3.40;99.90
28530;DHT22;15737;49.760;6.632;2024-01-30T06:30:08;3.40;99.90
28530;DHT22;15737;49.760;6.632;2024-01-30T06:32:35;3.50;99.90
28530;DHT22;15737;49.760;6.632;2024-01-30T06:35:02;3.40;99.90
28530;DHT22;15737;49.760;6.632;2024-01-30T06:37:27;3.30;99.90
28530;DHT22;15737;49.760;6.632;2024-01-30T06:39:53;3.20;99.90
28530;DHT22;15737;49.760;6.632;2024-01-30T06:42:19;3.00;99.90
28530;DHT22;15737;49.760;6.632;2024-01-30T06:44:44;2.80;99.90
28530;DHT22;15737;49.760;6.632;2024-01-30T06:47:10;2.80;99.90
28530;DHT22;15737;49.760;6.632;2024-01-30T06:49:36;3.00;99.90
28530;DHT22;15737;49.760;6.632;2024-01-30T06:52:06;3.00;99.90
28530;DHT22;15737;49.760;6.632;2024-01-30T06:54:31;3.10;99.90
28530;DHT22;15737;49.760;6.632;2024-01-30T06:56:58;3.20;99.90
28530;DHT22;15737;49.760;6.632;2024-01-30T06:59:23;3.30;99.90
28530;DHT22;15737;49.760;6.632;2024-01-30T07:01:49;3.40;99.90
28530;DHT22;15737;49.760;6.632;2024-01-30T07:04:14;3.60;99.90
28530;DHT22;15737;49.760;6.632;2024-01-30T07:06:41;3.60;99.90
28530;DHT22;15737;49.760;6.632;2024-01-30T07:09:07;3.50;99.90
28530;DHT22;15737;49.760;6.632;2024-01-30T07:11:32;3.40;99.90
28530;DHT22;15737;49.760;6.632;2024-01-30T07:13:58;3.20;99.90
28530;DHT22;15737;49.760;6.632;2024-01-30T07:16:23;3.10;99.90
28530;DHT22;15737;49.760;6.632;2024-01-30T07:18:49;3.10;99.90
28530;DHT22;15737;49.760;6.632;2024-01-30T07:21:15;3.30;99.90
28530;DHT22;15737;49.760;6.632;2024-01-30T07:23:41;3.40;99.90
28530;DHT22;15737;49.760;6.632;2024-01-30T07:26:08;3.40;99.90
28530;DHT22;15737;49.760;6.632;2024-01-30T07:28:34;3.40;99.90
28530;DHT22;15737;49.760;6.632;2024-01-30T07:31:00;3.50;99.90
28530;DHT22;15737;49.760;6.632;2024-01-30T07:33:26;3.60;99.90
28530;DHT22;15737;49.760;6.632;2024-01-30T07:35:53;3.40;99.90
28530;DHT22;15737;49.760;6.632;2024-01-30T07:38:19;3.60;99.90
28530;DHT22;15737;49.760;6.632;2024-01-30T07:40:45;3.60;99.90
28530;DHT22;15737;49.760;6.632;2024-01-30T07:43:10;3.60;99.90
28530;DHT22;15737;49.760;6.632;2024-01-30T07:45:36;3.80;99.90
28530;DHT22;15737;49.760;6.632;2024-01-30T07:48:05;3.90;99.90
28530;DHT22;15737;49.760;6.632;2024-01-30T07:50:30;3.90;99.90
28530;DHT22;15737;49.760;6.632;2024-01-30T07:52:56;4.00;99.90
28530;DHT22;15737;49.760;6.632;2024-01-30T07:55:25;4.10;99.90
28530;DHT22;15737;49.760;6.632;2024-01-30T07:57:54;4.40;99.90
28530;DHT22;15737;49.760;6.632;2024-01-30T08:00:20;4.60;99.90
28530;DHT22;15737;49.760;6.632;2024-01-30T08:02:46;4.80;99.90
28530;DHT22;15737;49.760;6.632;2024-01-30T08:05:12;5.10;99.90
28530;DHT22;15737;49.760;6.632;2024-01-30T08:07:37;5.30;99.90
28530;DHT22;15737;49.760;6.632;2024-01-30T08:10:03;5.50;99.90
28530;DHT22;15737;49.760;6.632;2024-01-30T08:12:29;5.50;99.90
28530;DHT22;15737;49.760;6.632;2024-01-30T08:14:54;5.30;99.90
28530;DHT22;15737;49.760;6.632;2024-01-30T08:17:20;5.40;99.90
28530;DHT22;15737;49.760;6.632;2024-01-30T08:19:45;5.50;99.90
28530;DHT22;15737;49.760;6.632;2024-01-30T08:22:12;5.50;99.90
28530;DHT22;15737;49.760;6.632;2024-01-30T08:24:37;5.60;99.90
28530;DHT22;15737;49.760;6.632;2024-01-30T08:27:03;5.70;99.90
28530;DHT22;15737;49.760;6.632;2024-01-30T08:29:39;5.90;99.90
28530;DHT22;15737;49.760;6.632;2024-01-30T08:32:05;6.20;99.90
28530;DHT22;15737;49.760;6.632;2024-01-30T08:34:31;6.30;99.90
28530;DHT22;15737;49.760;6.632;2024-01-30T08:36:57;6.30;99.90
28530;DHT22;15737;49.760;6.632;2024-01-30T08:39:23;6.40;99.90
28530;DHT22;15737;49.760;6.632;2024-01-30T08:41:48;6.80;99.90
28530;DHT22;15737;49.760;6.632;2024-01-30T08:44:13;7.30;99.90
28530;DHT22;15737;49.760;6.632;2024-01-30T08:46:39;7.90;99.90
28530;DHT22;15737;49.760;6.632;2024-01-30T08:49:05;8.20;99.90
28530;DHT22;15737;49.760;6.632;2024-01-30T08:51:30;7.70;99.90
28530;DHT22;15737;49.760;6.632;2024-01-30T08:53:56;7.30;99.90
28530;DHT22;15737;49.760;6.632;2024-01-30T08:56:22;7.10;99.90
28530;DHT22;15737;49.760;6.632;2024-01-30T08:58:47;7.10;99.90
28530;DHT22;15737;49.760;6.632;2024-01-30T09:01:14;6.80;99.90
28530;DHT22;15737;49.760;6.632;2024-01-30T09:03:39;6.20;99.90
28530;DHT22;15737;49.760;6.632;2024-01-30T09:06:12;6.10;99.90
28530;DHT22;15737;49.760;6.632;2024-01-30T09:08:38;5.90;99.90
28530;DHT22;15737;49.760;6.632;2024-01-30T09:11:12;6.00;99.90
28530;DHT22;15737;49.760;6.632;2024-01-30T09:13:38;6.10;99.90
28530;DHT22;15737;49.760;6.632;2024-01-30T09:16:04;6.30;99.90
28530;DHT22;15737;49.760;6.632;2024-01-30T09:18:30;6.30;99.90
28530;DHT22;15737;49.760;6.632;2024-01-30T09:20:56;6.40;99.90
28530;DHT22;15737;49.760;6.632;2024-01-30T09:23:21;6.60;99.90
28530;DHT22;15737;49.760;6.632;2024-01-30T09:25:47;7.00;99.90
28530;DHT22;15737;49.760;6.632;2024-01-30T09:28:12;7.40;99.90
28530;DHT22;15737;49.760;6.632;2024-01-30T09:30:38;7.70;99.90
28530;DHT22;15737;49.760;6.632;2024-01-30T09:33:04;8.00;99.90
28530;DHT22;15737;49.760;6.632;2024-01-30T09:35:30;8.20;99.90
28530;DHT22;15737;49.760;6.632;2024-01-30T09:37:55;8.50;99.90
28530;DHT22;15737;49.760;6.632;2024-01-30T09:40:22;8.10;99.90
28530;DHT22;15737;49.760;6.632;2024-01-30T09:42:50;7.30;99.90
28530;DHT22;15737;49.760;6.632;2024-01-30T09:45:17;6.80;99.90
28530;DHT22;15737;49.760;6.632;2024-01-30T09:47:44;6.60;99.90
28530;DHT22;15737;49.760;6.632;2024-01-30T09:50:11;6.70;99.90
28530;DHT22;15737;49.760;6.632;2024-01-30T09:52:37;7.10;99.90
28530;DHT22;15737;49.760;6.632;2024-01-30T09:55:04;7.30;99.90
28530;DHT22;15737;49.760;6.632;2024-01-30T09:57:30;7.50;99.90
28530;DHT22;15737;49.760;6.632;2024-01-30T09:59:55;7.70;99.90
28530;DHT22;15737;49.760;6.632;2024-01-30T10:02:21;7.80;99.90
28530;DHT22;15737;49.760;6.632;2024-01-30T10:04:48;7.90;99.90
28530;DHT22;15737;49.760;6.632;2024-01-30T10:07:15;8.00;99.90
28530;DHT22;15737;49.760;6.632;2024-01-30T10:09:40;8.30;99.90
28530;DHT22;15737;49.760;6.632;2024-01-30T10:12:06;8.30;99.90
28530;DHT22;15737;49.760;6.632;2024-01-30T10:14:33;7.90;99.90
28530;DHT22;15737;49.760;6.632;2024-01-30T10:16:58;7.90;99.90
28530;DHT22;15737;49.760;6.632;2024-01-30T10:19:24;8.30;99.90
28530;DHT22;15737;49.760;6.632;2024-01-30T10:21:50;8.70;99.90
28530;DHT22;15737;49.760;6.632;2024-01-30T10:24:15;9.00;99.90
28530;DHT22;15737;49.760;6.632;2024-01-30T10:26:44;9.50;99.90
28530;DHT22;15737;49.760;6.632;2024-01-30T10:29:09;9.40;99.90
28530;DHT22;15737;49.760;6.632;2024-01-30T10:31:35;9.20;99.90
28530;DHT22;15737;49.760;6.632;2024-01-30T10:34:00;9.20;99.90
28530;DHT22;15737;49.760;6.632;2024-01-30T10:36:28;9.40;99.90
28530;DHT22;15737;49.760;6.632;2024-01-30T10:38:59;9.40;99.90
28530;DHT22;15737;49.760;6.632;2024-01-30T10:41:31;9.20;99.90
28530;DHT22;15737;49.760;6.632;2024-01-30T10:44:08;9.20;99.90
28530;DHT22;15737;49.760;6.632;2024-01-30T10:46:35;9.20;99.90
28530;DHT22;15737;49.760;6.632;2024-01-30T10:49:03;9.20;99.90
28530;DHT22;15737;49.760;6.632;2024-01-30T10:51:31;9.30;99.90
28530;DHT22;15737;49.760;6.632;2024-01-30T10:53:57;9.30;99.90
28530;DHT22;15737;49.760;6.632;2024-01-30T10:56:24;9.40;99.90
28530;DHT22;15737;49.760;6.632;2024-01-30T10:58:53;9.60;99.90
28530;DHT22;15737;49.760;6.632;2024-01-30T11:01:20;9.90;99.90
28530;DHT22;15737;49.760;6.632;2024-01-30T11:03:49;10.50;99.90
28530;DHT22;15737;49.760;6.632;2024-01-30T11:06:16;10.90;99.90
28530;DHT22;15737;49.760;6.632;2024-01-30T11:08:44;10.90;99.90
28530;DHT22;15737;49.760;6.632;2024-01-30T11:11:10;10.70;99.90
28530;DHT22;15737;49.760;6.632;2024-01-30T11:13:36;10.50;99.90
28530;DHT22;15737;49.760;6.632;2024-01-30T11:16:05;10.30;99.90
28530;DHT22;15737;49.760;6.632;2024-01-30T11:18:32;10.10;99.90
28530;DHT22;15737;49.760;6.632;2024-01-30T11:21:01;9.90;99.90
28530;DHT22;15737;49.760;6.632;2024-01-30T11:23:30;9.80;99.90
28530;DHT22;15737;49.760;6.632;2024-01-30T11:25:56;9.60;99.90
28530;DHT22;15737;49.760;6.632;2024-01-30T11:28:23;9.50;99.90
28530;DHT22;15737;49.760;6.632;2024-01-30T11:30:49;9.40;99.90
28530;DHT22;15737;49.760;6.632;2024-01-30T11:33:27;9.40;99.90
28530;DHT22;15737;49.760;6.632;2024-01-30T11:35:53;9.40;99.90
28530;DHT22;15737;49.760;6.632;2024-01-30T11:38:19;9.40;99.90
28530;DHT22;15737;49.760;6.632;2024-01-30T11:40:45;9.40;99.90
28530;DHT22;15737;49.760;6.632;2024-01-30T11:43:11;9.40;99.90
28530;DHT22;15737;49.760;6.632;2024-01-30T11:45:37;9.50;99.90
28530;DHT22;15737;49.760;6.632;2024-01-30T11:48:05;9.50;99.90
28530;DHT22;15737;49.760;6.632;2024-01-30T11:50:31;9.60;99.90
28530;DHT22;15737;49.760;6.632;2024-01-30T11:52:58;9.70;99.90
28530;DHT22;15737;49.760;6.632;2024-01-30T11:55:24;9.70;99.90
28530;DHT22;15737;49.760;6.632;2024-01-30T11:57:50;9.70;99.90
28530;DHT22;15737;49.760;6.632;2024-01-30T12:00:17;9.60;99.90
28530;DHT22;15737;49.760;6.632;2024-01-30T12:02:48;9.60;99.90
28530;DHT22;15737;49.760;6.632;2024-01-30T12:05:14;9.60;99.90
28530;DHT22;15737;49.760;6.632;2024-01-30T12:07:39;9.70;99.90
28530;DHT22;15737;49.760;6.632;2024-01-30T12:10:05;9.80;99.90
28530;DHT22;15737;49.760;6.632;2024-01-30T12:12:31;10.00;99.90
28530;DHT22;15737;49.760;6.632;2024-01-30T12:14:57;10.10;99.90
28530;DHT22;15737;49.760;6.632;2024-01-30T12:17:33;10.00;99.90
28530;DHT22;15737;49.760;6.632;2024-01-30T12:20:11;10.00;99.90
28530;DHT22;15737;49.760;6.632;2024-01-30T12:22:38;10.00;99.90
28530;DHT22;15737;49.760;6.632;2024-01-30T12:25:11;10.00;99.90
28530;DHT22;15737;49.760;6.632;2024-01-30T12:27:38;10.30;99.90
28530;DHT22;15737;49.760;6.632;2024-01-30T12:30:08;10.70;99.90
28530;DHT22;15737;49.760;6.632;2024-01-30T12:32:41;10.70;99.90
28530;DHT22;15737;49.760;6.632;2024-01-30T12:35:17;10.70;99.90
28530;DHT22;15737;49.760;6.632;2024-01-30T12:37:44;10.70;99.90
28530;DHT22;15737;49.760;6.632;2024-01-30T12:40:11;10.70;99.90
28530;DHT22;15737;49.760;6.632;2024-01-30T12:42:42;10.60;99.90
28530;DHT22;15737;49.760;6.632;2024-01-30T12:45:08;10.50;99.90
28530;DHT22;15737;49.760;6.632;2024-01-30T12:47:34;10.50;99.90
28530;DHT22;15737;49.760;6.632;2024-01-30T12:49:59;10.50;99.90
28530;DHT22;15737;49.760;6.632;2024-01-30T12:52:25;10.60;99.90
28530;DHT22;15737;49.760;6.632;2024-01-30T12:54:52;10.60;99.90
28530;DHT22;15737;49.760;6.632;2024-01-30T12:57:18;10.60;99.90
28530;DHT22;15737;49.760;6.632;2024-01-30T12:59:44;10.60;99.90
28530;DHT22;15737;49.760;6.632;2024-01-30T13:02:10;10.60;99.90
28530;DHT22;15737;49.760;6.632;2024-01-30T13:04:36;10.60;99.90
28530;DHT22;15737;49.760;6.632;2024-01-30T13:07:02;10.60;99.90
28530;DHT22;15737;49.760;6.632;2024-01-30T13:09:29;10.70;99.90
28530;DHT22;15737;49.760;6.632;2024-01-30T13:11:54;10.60;99.90
28530;DHT22;15737;49.760;6.632;2024-01-30T13:14:20;10.50;99.90
28530;DHT22;15737;49.760;6.632;2024-01-30T13:16:45;10.60;99.90
28530;DHT22;15737;49.760;6.632;2024-01-30T13:19:11;10.60;99.90
28530;DHT22;15737;49.760;6.632;2024-01-30T13:21:37;10.50;99.90
28530;DHT22;15737;49.760;6.632;2024-01-30T13:24:03;10.40;99.90
28530;DHT22;15737;49.760;6.632;2024-01-30T13:26:29;10.40;99.90
28530;DHT22;15737;49.760;6.632;2024-01-30T13:28:56;10.40;99.90
28530;DHT22;15737;49.760;6.632;2024-01-30T13:31:21;10.40;99.90
28530;DHT22;15737;49.760;6.632;2024-01-30T13:33:47;10.40;99.90
28530;DHT22;15737;49.760;6.632;2024-01-30T13:36:14;10.40;99.90
28530;DHT22;15737;49.760;6.632;2024-01-30T13:38:40;10.50;99.90
28530;DHT22;15737;49.760;6.632;2024-01-30T13:41:05;10.50;99.90
28530;DHT22;15737;49.760;6.632;2024-01-30T13:43:31;10.50;99.90
28530;DHT22;15737;49.760;6.632;2024-01-30T13:45:57;10.50;99.90
28530;DHT22;15737;49.760;6.632;2024-01-30T13:48:22;10.50;99.90
28530;DHT22;15737;49.760;6.632;2024-01-30T13:50:48;10.50;99.90
28530;DHT22;15737;49.760;6.632;2024-01-30T13:53:14;10.60;99.90
28530;DHT22;15737;49.760;6.632;2024-01-30T13:55:39;10.60;99.90
28530;DHT22;15737;49.760;6.632;2024-01-30T13:58:06;10.60;99.90
28530;DHT22;15737;49.760;6.632;2024-01-30T14:00:32;10.50;99.90
28530;DHT22;15737;49.760;6.632;2024-01-30T14:02:57;10.50;99.90
28530;DHT22;15737;49.760;6.632;2024-01-30T14:05:24;10.50;99.90
28530;DHT22;15737;49.760;6.632;2024-01-30T14:07:51;10.60;99.90
28530;DHT22;15737;49.760;6.632;2024-01-30T14:10:17;10.60;99.90
28530;DHT22;15737;49.760;6.632;2024-01-30T14:12:43;10.60;99.90
28530;DHT22;15737;49.760;6.632;2024-01-30T14:15:09;10.60;99.90
28530;DHT22;15737;49.760;6.632;2024-01-30T14:17:35;10.60;99.90
28530;DHT22;15737;49.760;6.632;2024-01-30T14:20:04;10.60;99.90
28530;DHT22;15737;49.760;6.632;2024-01-30T14:22:31;10.50;99.90
28530;DHT22;15737;49.760;6.632;2024-01-30T14:24:58;10.50;99.90
28530;DHT22;15737;49.760;6.632;2024-01-30T14:27:23;10.40;99.90
28530;DHT22;15737;49.760;6.632;2024-01-30T14:29:49;10.40;99.90
28530;DHT22;15737;49.760;6.632;2024-01-30T14:32:17;10.40;99.90
28530;DHT22;15737;49.760;6.632;2024-01-30T14:34:43;10.40;99.90
28530;DHT22;15737;49.760;6.632;2024-01-30T14:37:08;10.40;99.90
28530;DHT22;15737;49.760;6.632;2024-01-30T14:39:34;10.40;99.90
28530;DHT22;15737;49.760;6.632;2024-01-30T14:42:03;10.40;99.90
28530;DHT22;15737;49.760;6.632;2024-01-30T14:44:29;10.40;99.90
28530;DHT22;15737;49.760;6.632;2024-01-30T14:46:54;10.40;99.90
28530;DHT22;15737;49.760;6.632;2024-01-30T14:49:20;10.40;99.90
28530;DHT22;15737;49.760;6.632;2024-01-30T14:51:46;10.50;99.90
28530;DHT22;15737;49.760;6.632;2024-01-30T14:54:12;10.50;99.90
28530;DHT22;15737;49.760;6.632;2024-01-30T14:56:37;10.40;99.90
28530;DHT22;15737;49.760;6.632;2024-01-30T14:59:03;10.40;99.90
28530;DHT22;15737;49.760;6.632;2024-01-30T15:03:59;10.40;99.90
28530;DHT22;15737;49.760;6.632;2024-01-30T15:06:24;10.40;99.90
28530;DHT22;15737;49.760;6.632;2024-01-30T15:08:51;10.40;99.90
28530;DHT22;15737;49.760;6.632;2024-01-30T15:11:17;10.40;99.90
28530;DHT22;15737;49.760;6.632;2024-01-30T15:13:42;10.40;99.90
28530;DHT22;15737;49.760;6.632;2024-01-30T15:16:08;10.40;99.90
28530;DHT22;15737;49.760;6.632;2024-01-30T15:18:34;10.40;99.90
28530;DHT22;15737;49.760;6.632;2024-01-30T15:20:59;10.40;99.90
28530;DHT22;15737;49.760;6.632;2024-01-30T15:23:25;10.50;99.90
28530;DHT22;15737;49.760;6.632;2024-01-30T15:25:50;10.50;99.90
28530;DHT22;15737;49.760;6.632;2024-01-30T15:28:16;10.60;99.90
28530;DHT22;15737;49.760;6.632;2024-01-30T15:30:42;10.60;99.90
28530;DHT22;15737;49.760;6.632;2024-01-30T15:33:09;10.60;99.90
28530;DHT22;15737;49.760;6.632;2024-01-30T15:35:35;10.60;99.90
28530;DHT22;15737;49.760;6.632;2024-01-30T15:38:01;10.60;99.90
28530;DHT22;15737;49.760;6.632;2024-01-30T15:40:26;10.50;99.90